createdAt,value
2018-04-19T00:00:24.242Z,5.10
2018-04-19T00:01:31.147Z,6.00
2018-04-19T00:02:37.918Z,5.00
2018-04-19T00:03:44.713Z,5.90
2018-04-19T00:04:51.502Z,7.10
2018-04-19T00:05:58.266Z,5.10
2018-04-19T00:07:05.375Z,5.30
2018-04-19T00:08:12.250Z,6.30
2018-04-19T00:09:19.044Z,5.70
2018-04-19T00:10:25.910Z,5.20
2018-04-19T00:11:32.686Z,5.80
2018-04-19T00:12:39.455Z,5.40
2018-04-19T00:13:46.319Z,5.90
2018-04-19T00:14:53.246Z,5.20
2018-04-19T00:16:00.050Z,6.10
2018-04-19T00:17:07.263Z,5.00
2018-04-19T00:18:14.036Z,4.60
2018-04-19T00:19:20.852Z,5.30
2018-04-19T00:20:27.836Z,6.20
2018-04-19T00:21:34.681Z,5.50
2018-04-19T00:22:41.427Z,6.50
2018-04-19T00:23:48.255Z,4.90
2018-04-19T00:24:55.044Z,5.10
2018-04-19T00:26:01.883Z,5.50
2018-04-19T00:27:08.678Z,5.50
2018-04-19T00:28:15.455Z,5.90
2018-04-19T00:29:22.241Z,5.20
2018-04-19T00:30:29.149Z,5.70
2018-04-19T00:31:35.951Z,5.60
2018-04-19T00:32:42.782Z,4.90
2018-04-19T00:33:49.551Z,5.50
2018-04-19T00:34:56.367Z,5.60
2018-04-19T00:36:03.128Z,5.80
2018-04-19T00:37:09.964Z,5.30
2018-04-19T00:38:16.739Z,5.30
2018-04-19T00:39:23.554Z,5.90
2018-04-19T00:40:30.373Z,4.90
2018-04-19T00:41:37.238Z,5.40
2018-04-19T00:42:43.991Z,5.40
2018-04-19T00:43:50.806Z,6.80
2018-04-19T00:44:57.663Z,5.00
2018-04-19T00:46:04.432Z,5.10
2018-04-19T00:47:11.236Z,5.70
2018-04-19T00:48:18.010Z,6.30
2018-04-19T00:49:24.814Z,5.70
2018-04-19T00:50:31.669Z,5.60
2018-04-19T00:51:38.470Z,5.90
2018-04-19T00:52:45.243Z,5.50
2018-04-19T00:53:52.132Z,5.30
2018-04-19T00:54:58.936Z,5.80
2018-04-19T00:56:05.817Z,4.90
2018-04-19T00:57:12.633Z,4.50
2018-04-19T00:58:19.425Z,5.40
2018-04-19T00:59:26.317Z,5.40
2018-04-19T01:00:33.138Z,4.90
2018-04-19T01:01:39.942Z,4.80
2018-04-19T01:02:46.779Z,5.30
2018-04-19T01:03:53.555Z,5.20
2018-04-19T01:05:00.375Z,5.20
2018-04-19T01:06:07.173Z,5.30
2018-04-19T01:07:14.071Z,4.90
2018-04-19T01:08:20.884Z,5.30
2018-04-19T01:09:27.688Z,5.20
2018-04-19T01:10:34.471Z,5.10
2018-04-19T01:11:41.245Z,5.00
2018-04-19T01:12:48.034Z,5.70
2018-04-19T01:13:54.956Z,5.30
2018-04-19T01:15:01.862Z,5.90
2018-04-19T01:16:08.718Z,5.30
2018-04-19T01:17:15.495Z,5.10
2018-04-19T01:18:22.285Z,5.80
2018-04-19T01:19:29.077Z,5.20
2018-04-19T01:20:35.857Z,5.40
2018-04-19T01:21:42.826Z,4.80
2018-04-19T01:22:49.710Z,5.20
2018-04-19T01:23:56.547Z,5.50
2018-04-19T01:25:03.338Z,5.30
2018-04-19T01:26:10.262Z,6.00
2018-04-19T01:27:17.075Z,5.80
2018-04-19T01:28:23.895Z,5.70
2018-04-19T01:29:30.691Z,5.50
2018-04-19T01:30:37.452Z,5.90
2018-04-19T01:31:44.281Z,5.30
2018-04-19T01:32:51.139Z,5.60
2018-04-19T01:33:57.927Z,5.30
2018-04-19T01:35:04.717Z,7.30
2018-04-19T01:36:11.498Z,5.50
2018-04-19T01:37:18.316Z,7.10
2018-04-19T01:38:25.072Z,5.40
2018-04-19T01:39:31.875Z,5.40
2018-04-19T01:40:38.689Z,5.80
2018-04-19T01:41:45.466Z,4.80
2018-04-19T01:42:52.256Z,5.70
2018-04-19T01:43:59.045Z,6.40
2018-04-19T01:45:05.884Z,5.50
2018-04-19T01:46:12.662Z,5.70
2018-04-19T01:47:19.679Z,5.20
2018-04-19T01:48:26.451Z,7.00
2018-04-19T01:49:33.275Z,5.20
2018-04-19T01:50:40.104Z,5.20
2018-04-19T01:51:46.913Z,5.70
2018-04-19T01:52:53.743Z,5.30
2018-04-19T01:54:00.500Z,5.00
2018-04-19T01:55:07.286Z,5.70
2018-04-19T01:56:14.078Z,5.30
2018-04-19T01:57:20.844Z,5.30
2018-04-19T01:58:27.605Z,5.70
2018-04-19T01:59:34.427Z,5.20
2018-04-19T02:00:41.240Z,5.90
2018-04-19T02:01:48.199Z,5.60
2018-04-19T02:02:55.031Z,5.50
2018-04-19T02:04:01.816Z,5.30
2018-04-19T02:05:08.659Z,5.70
2018-04-19T02:06:15.493Z,6.50
2018-04-19T02:07:22.423Z,5.40
2018-04-19T02:08:29.158Z,6.10
2018-04-19T02:09:36.032Z,5.70
2018-04-19T02:10:42.794Z,6.20
2018-04-19T02:11:49.659Z,5.50
2018-04-19T02:12:56.434Z,5.80
2018-04-19T02:14:03.220Z,5.80
2018-04-19T02:15:10.091Z,5.90
2018-04-19T02:16:16.960Z,5.90
2018-04-19T02:17:23.798Z,5.90
2018-04-19T02:18:30.595Z,6.40
2018-04-19T02:19:37.477Z,6.00
2018-04-19T02:20:44.255Z,6.20
2018-04-19T02:21:50.999Z,6.30
2018-04-19T02:22:57.775Z,6.00
2018-04-19T02:24:04.539Z,5.60
2018-04-19T02:25:11.396Z,6.30
2018-04-19T02:26:18.170Z,7.80
2018-04-19T02:27:24.977Z,5.70
2018-04-19T02:28:31.843Z,6.50
2018-04-19T02:29:38.669Z,6.70
2018-04-19T02:30:45.437Z,6.50
2018-04-19T02:31:52.486Z,7.10
2018-04-19T02:32:59.254Z,6.60
2018-04-19T02:34:06.090Z,6.30
2018-04-19T02:35:12.903Z,6.10
2018-04-19T02:36:19.715Z,6.50
2018-04-19T02:37:26.532Z,6.40
2018-04-19T02:38:33.367Z,6.10
2018-04-19T02:39:40.191Z,6.10
2018-04-19T02:40:46.978Z,6.90
2018-04-19T02:41:53.864Z,6.30
2018-04-19T02:43:01.348Z,6.50
2018-04-19T02:44:07.579Z,5.20
2018-04-19T02:45:14.351Z,6.00
2018-04-19T02:46:21.240Z,5.90
2018-04-19T02:47:28.039Z,6.20
2018-04-19T02:48:34.797Z,5.90
2018-04-19T02:49:41.725Z,6.20
2018-04-19T02:50:48.523Z,6.00
2018-04-19T02:51:55.341Z,6.70
2018-04-19T02:53:02.139Z,6.20
2018-04-19T02:54:08.907Z,6.60
2018-04-19T02:55:15.766Z,6.30
2018-04-19T02:56:22.563Z,6.40
2018-04-19T02:57:29.459Z,6.60
2018-04-19T02:58:36.477Z,6.00
2018-04-19T02:59:43.211Z,6.20
2018-04-19T03:00:50.236Z,6.60
2018-04-19T03:01:57.185Z,7.60
2018-04-19T03:03:03.950Z,6.40
2018-04-19T03:04:10.955Z,6.50
2018-04-19T03:05:17.594Z,6.80
2018-04-19T03:06:24.440Z,6.80
2018-04-19T03:07:31.291Z,7.60
2018-04-19T03:08:38.421Z,7.50
2018-04-19T03:09:45.231Z,7.70
2018-04-19T03:10:52.059Z,6.90
2018-04-19T03:11:58.975Z,6.70
2018-04-19T03:13:05.780Z,6.00
2018-04-19T03:14:12.625Z,6.30
2018-04-19T03:15:19.721Z,6.80
2018-04-19T03:16:26.678Z,7.40
2018-04-19T03:17:33.704Z,6.70
2018-04-19T03:18:40.642Z,6.50
2018-04-19T03:19:47.630Z,6.80
2018-04-19T03:20:54.371Z,6.90
2018-04-19T03:22:01.214Z,7.20
2018-04-19T03:23:08.000Z,6.80
2018-04-19T03:24:15.050Z,6.60
2018-04-19T03:25:22.014Z,6.80
2018-04-19T03:26:30.801Z,7.30
2018-04-19T03:27:35.311Z,6.80
2018-04-19T03:28:42.163Z,6.70
2018-04-19T03:29:49.082Z,6.40
2018-04-19T03:30:55.889Z,6.30
2018-04-19T03:32:03.031Z,6.30
2018-04-19T03:33:09.863Z,6.10
2018-04-19T03:34:16.718Z,6.30
2018-04-19T03:35:23.730Z,6.80
2018-04-19T03:36:30.628Z,6.70
2018-04-19T03:37:37.629Z,5.90
2018-04-19T03:38:44.443Z,7.20
2018-04-19T03:39:51.436Z,7.00
2018-04-19T03:40:58.236Z,6.60
2018-04-19T03:42:05.100Z,6.40
2018-04-19T03:43:11.686Z,9.50
2018-04-19T03:44:18.602Z,7.10
2018-04-19T03:45:25.438Z,7.60
2018-04-19T03:46:32.404Z,6.50
2018-04-19T03:47:39.242Z,8.40
2018-04-19T03:48:46.060Z,6.80
2018-04-19T03:49:52.932Z,6.50
2018-04-19T03:50:59.798Z,6.60
2018-04-19T03:52:06.588Z,6.70
2018-04-19T03:53:13.451Z,6.50
2018-04-19T03:54:20.328Z,6.50
2018-04-19T03:55:27.424Z,7.20
2018-04-19T03:56:33.914Z,7.10
2018-04-19T03:57:40.754Z,7.20
2018-04-19T03:58:47.550Z,7.20
2018-04-19T03:59:54.366Z,7.30
2018-04-19T04:01:01.183Z,7.20
2018-04-19T04:02:07.943Z,6.90
2018-04-19T04:03:14.666Z,7.30
2018-04-19T04:04:21.442Z,6.40
2018-04-19T04:05:28.242Z,6.70
2018-04-19T04:06:35.168Z,7.20
2018-04-19T04:07:41.831Z,7.60
2018-04-19T04:08:48.570Z,6.40
2018-04-19T04:09:55.353Z,6.40
2018-04-19T04:11:02.197Z,7.40
2018-04-19T04:12:08.962Z,6.50
2018-04-19T04:13:15.752Z,6.80
2018-04-19T04:14:22.500Z,8.30
2018-04-19T04:15:29.337Z,6.60
2018-04-19T04:16:36.178Z,6.50
2018-04-19T04:17:43.066Z,7.40
2018-04-19T04:18:50.052Z,6.20
2018-04-19T04:21:04.798Z,6.70
2018-04-19T04:22:11.654Z,6.70
2018-04-19T04:23:18.515Z,7.00
2018-04-19T04:24:25.586Z,8.10
2018-04-19T04:25:32.375Z,7.90
2018-04-19T04:26:39.098Z,6.10
2018-04-19T04:27:45.863Z,7.50
2018-04-19T04:28:52.754Z,7.20
2018-04-19T04:29:59.529Z,6.30
2018-04-19T04:31:06.380Z,9.30
2018-04-19T04:32:13.156Z,6.60
2018-04-19T04:33:19.902Z,9.00
2018-04-19T04:34:26.682Z,7.10
2018-04-19T04:35:33.455Z,8.00
2018-04-19T04:36:40.250Z,8.40
2018-04-19T04:37:47.015Z,6.90
2018-04-19T04:38:53.882Z,9.80
2018-04-19T04:40:00.691Z,8.60
2018-04-19T04:41:07.582Z,9.00
2018-04-19T04:42:14.352Z,12.90
2018-04-19T04:43:21.131Z,9.70
2018-04-19T04:44:27.934Z,12.60
2018-04-19T04:45:34.718Z,8.90
2018-04-19T04:46:41.498Z,9.80
2018-04-19T04:47:48.337Z,9.10
2018-04-19T04:48:55.105Z,10.90
2018-04-19T04:50:01.876Z,10.70
2018-04-19T04:51:08.727Z,10.40
2018-04-19T04:52:15.575Z,8.10
2018-04-19T04:53:22.412Z,9.80
2018-04-19T04:54:29.299Z,7.80
2018-04-19T04:55:36.100Z,9.90
2018-04-19T04:56:42.854Z,7.00
2018-04-19T04:57:49.685Z,7.40
2018-04-19T04:58:56.446Z,9.50
2018-04-19T05:00:03.229Z,7.20
2018-04-19T05:01:10.067Z,8.40
2018-04-19T05:02:16.833Z,8.40
2018-04-19T05:03:23.732Z,7.40
2018-04-19T05:04:30.483Z,8.10
2018-04-19T05:05:37.309Z,7.10
2018-04-19T05:06:44.128Z,7.60
2018-04-19T05:07:50.938Z,7.20
2018-04-19T05:08:57.835Z,6.80
2018-04-19T05:10:04.656Z,7.00
2018-04-19T05:11:11.451Z,11.70
2018-04-19T05:12:18.295Z,8.20
2018-04-19T05:13:25.092Z,11.50
2018-04-19T05:14:31.891Z,7.70
2018-04-19T05:15:38.782Z,8.30
2018-04-19T05:16:45.534Z,6.90
2018-04-19T05:17:52.276Z,6.90
2018-04-19T05:18:59.038Z,7.30
2018-04-19T05:20:05.961Z,6.90
2018-04-19T05:21:12.795Z,7.20
2018-04-19T05:22:19.571Z,7.10
2018-04-19T05:23:26.342Z,10.40
2018-04-19T05:24:33.153Z,11.00
2018-04-19T05:25:39.936Z,9.80
2018-04-19T05:26:46.740Z,11.70
2018-04-19T05:27:53.560Z,12.30
2018-04-19T05:29:00.309Z,10.30
2018-04-19T05:30:07.108Z,8.60
2018-04-19T05:31:13.986Z,9.60
2018-04-19T05:32:20.755Z,8.30
2018-04-19T05:33:27.547Z,8.20
2018-04-19T05:34:34.305Z,8.20
2018-04-19T05:35:41.105Z,10.90
2018-04-19T05:36:47.892Z,8.90
2018-04-19T05:37:54.675Z,9.40
2018-04-19T05:39:01.551Z,11.30
2018-04-19T05:40:08.284Z,11.10
2018-04-19T05:41:15.051Z,11.30
2018-04-19T05:42:21.834Z,10.90
2018-04-19T05:43:28.652Z,11.40
2018-04-19T05:44:35.423Z,10.40
2018-04-19T05:45:42.210Z,10.80
2018-04-19T05:46:48.967Z,9.10
2018-04-19T05:47:55.758Z,9.30
2018-04-19T05:49:02.539Z,11.60
2018-04-19T05:50:09.315Z,9.10
2018-04-19T05:51:16.130Z,9.90
2018-04-19T05:52:22.900Z,12.10
2018-04-19T05:53:29.682Z,14.00
2018-04-19T05:54:36.476Z,21.50
2018-04-19T05:55:43.328Z,17.10
2018-04-19T05:56:50.099Z,15.90
2018-04-19T05:57:56.904Z,16.80
2018-04-19T05:59:03.660Z,13.50
2018-04-19T06:00:10.474Z,15.80
2018-04-19T06:01:17.300Z,17.50
2018-04-19T06:02:24.092Z,20.30
2018-04-19T06:03:30.898Z,18.00
2018-04-19T06:04:37.686Z,13.40
2018-04-19T06:05:44.461Z,11.40
2018-04-19T06:06:51.371Z,11.30
2018-04-19T06:07:58.311Z,12.20
2018-04-19T06:09:05.103Z,11.20
2018-04-19T06:10:11.896Z,11.90
2018-04-19T06:11:18.704Z,16.70
2018-04-19T06:12:25.588Z,16.80
2018-04-19T06:13:32.537Z,15.70
2018-04-19T06:14:39.294Z,14.70
2018-04-19T06:15:46.075Z,16.50
2018-04-19T06:16:52.944Z,12.40
2018-04-19T06:17:59.838Z,16.50
2018-04-19T06:19:06.595Z,15.10
2018-04-19T06:20:13.360Z,16.50
2018-04-19T06:21:20.199Z,13.20
2018-04-19T06:22:26.967Z,13.80
2018-04-19T06:23:33.839Z,15.10
2018-04-19T06:24:40.614Z,12.60
2018-04-19T06:25:47.453Z,13.90
2018-04-19T06:26:54.309Z,13.40
2018-04-19T06:28:01.088Z,16.80
2018-04-19T06:29:07.887Z,13.60
2018-04-19T06:30:14.676Z,17.20
2018-04-19T06:31:21.628Z,17.90
2018-04-19T06:32:28.406Z,14.80
2018-04-19T06:33:35.175Z,15.40
2018-04-19T06:34:41.955Z,14.30
2018-04-19T06:35:48.746Z,14.40
2018-04-19T06:36:55.615Z,16.10
2018-04-19T06:38:02.354Z,16.20
2018-04-19T06:39:09.131Z,17.00
2018-04-19T06:40:15.940Z,16.50
2018-04-19T06:41:22.731Z,19.80
2018-04-19T06:42:29.515Z,18.30
2018-04-19T06:43:36.366Z,17.00
2018-04-19T06:44:43.139Z,17.60
2018-04-19T06:45:49.962Z,14.40
2018-04-19T06:46:56.769Z,16.70
2018-04-19T06:48:03.668Z,14.50
2018-04-19T06:49:10.435Z,16.10
2018-04-19T06:50:17.223Z,16.50
2018-04-19T06:51:24.107Z,17.10
2018-04-19T06:52:30.847Z,16.10
2018-04-19T06:53:37.646Z,20.90
2018-04-19T06:54:44.404Z,19.80
2018-04-19T06:55:51.202Z,15.10
2018-04-19T06:56:57.969Z,20.50
2018-04-19T06:58:04.708Z,21.90
2018-04-19T06:59:11.481Z,25.60
2018-04-19T07:00:18.304Z,23.90
2018-04-19T07:01:25.103Z,36.30
2018-04-19T07:02:31.924Z,35.10
2018-04-19T07:03:38.756Z,27.20
2018-04-19T07:04:45.778Z,24.80
2018-04-19T07:05:52.602Z,26.50
2018-04-19T07:06:59.446Z,28.20
2018-04-19T07:08:06.219Z,25.40
2018-04-19T07:09:13.008Z,21.30
2018-04-19T07:10:19.823Z,22.50
2018-04-19T07:11:26.637Z,19.90
2018-04-19T07:12:33.431Z,22.50
2018-04-19T07:13:40.206Z,23.00
2018-04-19T07:14:47.007Z,17.70
2018-04-19T07:15:53.884Z,17.70
2018-04-19T07:17:00.675Z,21.70
2018-04-19T07:18:07.444Z,18.50
2018-04-19T07:19:14.307Z,17.30
2018-04-19T07:20:21.098Z,22.60
2018-04-19T07:21:27.883Z,20.20
2018-04-19T07:22:34.787Z,18.60
2018-04-19T07:23:41.585Z,14.90
2018-04-19T07:24:48.343Z,20.40
2018-04-19T07:25:55.293Z,15.20
2018-04-19T07:27:01.930Z,16.00
2018-04-19T07:28:08.678Z,16.20
2018-04-19T07:29:15.444Z,16.80
2018-04-19T07:30:22.290Z,18.00
2018-04-19T07:31:29.075Z,17.50
2018-04-19T07:32:35.893Z,16.70
2018-04-19T07:33:42.856Z,16.60
2018-04-19T07:34:49.659Z,18.70
2018-04-19T07:35:56.576Z,16.80
2018-04-19T07:37:03.348Z,16.60
2018-04-19T07:38:10.105Z,17.40
2018-04-19T07:39:16.969Z,11.80
2018-04-19T07:40:23.719Z,14.30
2018-04-19T07:41:30.494Z,17.10
2018-04-19T07:42:37.258Z,13.30
2018-04-19T07:43:44.088Z,16.00
2018-04-19T07:44:50.856Z,18.60
2018-04-19T07:45:57.694Z,13.40
2018-04-19T07:47:04.542Z,14.80
2018-04-19T07:48:11.320Z,16.60
2018-04-19T07:49:18.091Z,14.70
2018-04-19T07:50:24.936Z,12.40
2018-04-19T07:51:31.842Z,12.20
2018-04-19T07:52:38.569Z,11.60
2018-04-19T07:53:45.335Z,13.40
2018-04-19T07:54:52.079Z,14.70
2018-04-19T07:55:58.863Z,12.70
2018-04-19T07:57:05.904Z,12.90
2018-04-19T07:58:12.652Z,12.90
2018-04-19T07:59:19.555Z,11.20
2018-04-19T08:00:26.399Z,10.80
2018-04-19T08:01:33.158Z,15.80
2018-04-19T08:02:40.007Z,11.00
2018-04-19T08:03:46.792Z,11.60
2018-04-19T08:04:53.676Z,12.00
2018-04-19T08:06:00.455Z,12.70
2018-04-19T08:07:07.272Z,11.40
2018-04-19T08:08:14.061Z,10.50
2018-04-19T08:09:20.895Z,13.70
2018-04-19T08:10:27.676Z,13.70
2018-04-19T08:11:34.452Z,13.30
2018-04-19T08:12:41.356Z,11.90
2018-04-19T08:13:48.111Z,10.90
2018-04-19T08:14:54.869Z,11.90
2018-04-19T08:16:01.720Z,11.40
2018-04-19T08:17:08.491Z,12.30
2018-04-19T08:18:15.221Z,13.30
2018-04-19T08:19:21.987Z,11.60
2018-04-19T08:20:28.745Z,11.10
2018-04-19T08:21:35.569Z,12.90
2018-04-19T08:22:42.407Z,12.30
2018-04-19T08:23:49.138Z,12.00
2018-04-19T08:24:56.012Z,11.70
2018-04-19T08:26:02.818Z,13.10
2018-04-19T08:27:09.582Z,11.70
2018-04-19T08:28:16.457Z,13.30
2018-04-19T08:29:23.220Z,12.30
2018-04-19T08:30:30.059Z,10.90
2018-04-19T08:31:36.927Z,12.50
2018-04-19T08:32:43.715Z,12.20
2018-04-19T08:33:50.756Z,10.80
2018-04-19T08:34:57.664Z,11.70
2018-04-19T08:36:04.503Z,11.90
2018-04-19T08:37:11.315Z,10.50
2018-04-19T08:38:18.155Z,10.80
2018-04-19T08:39:24.953Z,9.20
2018-04-19T08:40:31.818Z,9.10
2018-04-19T08:41:38.612Z,11.80
2018-04-19T08:42:45.363Z,11.70
2018-04-19T08:43:52.107Z,11.30
2018-04-19T08:44:58.938Z,9.50
2018-04-19T08:46:05.671Z,10.30
2018-04-19T08:47:12.478Z,12.40
2018-04-19T08:48:19.238Z,12.20
2018-04-19T08:49:26.014Z,10.20
2018-04-19T08:50:32.744Z,14.10
2018-04-19T08:51:39.605Z,11.10
2018-04-19T08:52:46.368Z,11.60
2018-04-19T08:53:53.143Z,10.70
2018-04-19T08:55:00.002Z,12.40
2018-04-19T08:56:06.882Z,11.20
2018-04-19T08:57:13.805Z,13.40
2018-04-19T08:58:20.542Z,13.00
2018-04-19T08:59:27.687Z,11.70
2018-04-19T09:00:34.480Z,10.40
2018-04-19T09:01:41.399Z,11.30
2018-04-19T09:02:48.152Z,13.60
2018-04-19T09:03:54.960Z,12.40
2018-04-19T09:05:01.974Z,11.20
2018-04-19T09:06:08.760Z,13.10
2018-04-19T09:07:15.700Z,14.90
2018-04-19T09:08:22.476Z,11.40
2018-04-19T09:09:29.282Z,11.90
2018-04-19T09:10:36.057Z,9.90
2018-04-19T09:11:42.838Z,10.50
2018-04-19T09:12:49.629Z,9.20
2018-04-19T09:13:56.379Z,9.40
2018-04-19T09:15:03.211Z,9.90
2018-04-19T09:16:10.230Z,10.80
2018-04-19T09:17:17.049Z,11.20
2018-04-19T09:18:23.860Z,10.50
2018-04-19T09:19:30.786Z,12.50
2018-04-19T09:20:37.511Z,10.50
2018-04-19T09:21:44.317Z,9.60
2018-04-19T09:22:51.250Z,10.10
2018-04-19T09:23:58.023Z,11.50
2018-04-19T09:25:04.795Z,10.50
2018-04-19T09:26:11.647Z,13.20
2018-04-19T09:27:18.443Z,10.90
2018-04-19T09:28:25.267Z,10.40
2018-04-19T09:29:32.104Z,11.00
2018-04-19T09:30:38.930Z,13.00
2018-04-19T09:31:45.716Z,12.50
2018-04-19T09:32:52.567Z,11.20
2018-04-19T09:33:59.335Z,11.10
2018-04-19T09:35:06.121Z,10.00
2018-04-19T09:36:13.035Z,11.30
2018-04-19T09:37:19.808Z,11.70
2018-04-19T09:38:26.768Z,10.60
2018-04-19T09:39:33.569Z,10.90
2018-04-19T09:40:40.314Z,8.80
2018-04-19T09:41:47.258Z,10.20
2018-04-19T09:42:54.073Z,13.10
2018-04-19T09:44:00.858Z,9.60
2018-04-19T09:45:07.700Z,11.50
2018-04-19T09:46:14.474Z,10.40
2018-04-19T09:47:21.319Z,11.50
2018-04-19T09:48:28.156Z,9.90
2018-04-19T09:49:34.957Z,13.10
2018-04-19T09:50:41.763Z,9.70
2018-04-19T09:51:49.021Z,10.60
2018-04-19T09:52:55.336Z,8.30
2018-04-19T09:54:02.256Z,9.50
2018-04-19T09:55:09.000Z,9.10
2018-04-19T09:56:15.847Z,8.60
2018-04-19T09:57:22.695Z,12.50
2018-04-19T09:58:29.571Z,7.30
2018-04-19T09:59:36.363Z,7.90
2018-04-19T10:00:43.129Z,9.50
2018-04-19T10:01:50.222Z,9.50
2018-04-19T10:02:57.083Z,7.80
2018-04-19T10:04:03.939Z,8.70
2018-04-19T10:05:10.840Z,10.40
2018-04-19T10:06:17.643Z,7.90
2018-04-19T10:07:24.439Z,8.80
2018-04-19T10:08:31.287Z,8.40
2018-04-19T10:09:38.102Z,8.90
2018-04-19T10:10:44.871Z,8.80
2018-04-19T10:11:51.694Z,10.50
2018-04-19T10:12:58.454Z,7.40
2018-04-19T10:14:05.275Z,7.70
2018-04-19T10:15:12.159Z,7.40
2018-04-19T10:16:18.946Z,7.40
2018-04-19T10:17:25.716Z,7.30
2018-04-19T10:18:32.606Z,6.20
2018-04-19T10:19:39.428Z,8.00
2018-04-19T10:20:46.250Z,7.70
2018-04-19T10:21:53.036Z,7.80
2018-04-19T10:22:59.834Z,6.10
2018-04-19T10:24:06.639Z,6.30
2018-04-19T10:25:13.470Z,6.90
2018-04-19T10:26:20.243Z,13.10
2018-04-19T10:27:27.072Z,7.20
2018-04-19T10:28:33.924Z,6.90
2018-04-19T10:29:41.000Z,7.10
2018-04-19T10:30:47.772Z,6.70
2018-04-19T10:31:54.696Z,6.40
2018-04-19T10:33:01.537Z,6.80
2018-04-19T10:34:08.376Z,6.50
2018-04-19T10:35:15.172Z,5.90
2018-04-19T10:36:22.501Z,5.70
2018-04-19T10:37:28.688Z,5.80
2018-04-19T10:38:35.488Z,5.30
2018-04-19T10:39:42.271Z,5.60
2018-04-19T10:40:49.101Z,5.00
2018-04-19T10:41:55.894Z,6.20
2018-04-19T10:43:02.650Z,6.10
2018-04-19T10:44:09.437Z,5.70
2018-04-19T10:45:16.226Z,5.90
2018-04-19T10:46:23.003Z,5.10
2018-04-19T10:47:29.813Z,6.40
2018-04-19T10:48:36.662Z,5.70
2018-04-19T10:49:43.398Z,5.70
2018-04-19T10:50:50.151Z,5.80
2018-04-19T10:51:56.927Z,5.20
2018-04-19T10:53:03.804Z,5.30
2018-04-19T10:54:10.635Z,5.40
2018-04-19T10:55:17.435Z,6.70
2018-04-19T10:56:24.259Z,5.40
2018-04-19T10:57:31.107Z,5.80
2018-04-19T10:58:37.925Z,6.50
2018-04-19T10:59:44.746Z,5.80
2018-04-19T11:00:51.579Z,5.60
2018-04-19T11:01:58.352Z,5.00
2018-04-19T11:03:05.222Z,5.10
2018-04-19T11:04:12.077Z,7.60
2018-04-19T11:05:19.001Z,6.50
2018-04-19T11:06:25.795Z,5.00
2018-04-19T11:07:32.608Z,5.80
2018-04-19T11:08:39.723Z,5.20
2018-04-19T11:09:46.604Z,5.40
2018-04-19T11:10:58.556Z,4.90
2018-04-19T11:12:00.633Z,5.00
2018-04-19T11:13:07.520Z,5.40
2018-04-19T11:14:14.270Z,5.00
2018-04-19T11:15:21.332Z,5.60
2018-04-19T11:16:28.107Z,5.80
2018-04-19T11:17:34.902Z,5.20
2018-04-19T11:18:41.642Z,4.70
2018-04-19T11:19:48.460Z,5.10
2018-04-19T11:20:55.291Z,5.10
2018-04-19T11:22:02.061Z,4.90
2018-04-19T11:23:08.914Z,5.20
2018-04-19T11:24:15.684Z,5.50
2018-04-19T11:25:22.466Z,5.10
2018-04-19T11:26:29.403Z,5.60
2018-04-19T11:27:36.198Z,6.50
2018-04-19T11:28:42.975Z,4.70
2018-04-19T11:29:49.858Z,5.10
2018-04-19T11:30:56.757Z,4.80
2018-04-19T11:32:03.899Z,5.20
2018-04-19T11:33:10.735Z,9.20
2018-04-19T11:34:17.521Z,6.50
2018-04-19T11:35:24.280Z,5.10
2018-04-19T11:36:31.163Z,4.80
2018-04-19T11:37:37.979Z,5.80
2018-04-19T11:38:44.839Z,5.10
2018-04-19T11:39:51.759Z,4.90
2018-04-19T11:40:58.634Z,5.20
2018-04-19T11:42:05.572Z,4.80
2018-04-19T11:43:12.365Z,5.00
2018-04-19T11:44:19.114Z,5.60
2018-04-19T11:45:25.938Z,5.10
2018-04-19T11:46:32.756Z,5.20
2018-04-19T11:47:39.589Z,5.10
2018-04-19T11:48:46.466Z,4.90
2018-04-19T11:49:53.250Z,5.50
2018-04-19T11:51:00.065Z,4.80
2018-04-19T11:52:06.923Z,5.90
2018-04-19T11:53:13.733Z,5.90
2018-04-19T11:54:20.502Z,6.40
2018-04-19T11:55:27.423Z,4.90
2018-04-19T11:56:34.216Z,5.40
2018-04-19T11:57:41.072Z,4.70
2018-04-19T11:58:47.882Z,5.10
2018-04-19T11:59:54.680Z,6.40
2018-04-19T12:01:01.521Z,6.10
2018-04-19T12:02:08.368Z,5.40
2018-04-19T12:03:15.163Z,5.40
2018-04-19T12:04:21.939Z,5.00
2018-04-19T12:05:28.747Z,5.40
2018-04-19T12:06:35.499Z,6.20
2018-04-19T12:07:42.263Z,5.20
2018-04-19T12:08:49.062Z,5.40
2018-04-19T12:09:55.870Z,5.40
2018-04-19T12:11:03.085Z,5.10
2018-04-19T12:12:09.558Z,4.80
2018-04-19T12:13:16.414Z,5.40
2018-04-19T12:14:23.216Z,5.60
2018-04-19T12:15:30.109Z,5.00
2018-04-19T12:16:36.947Z,5.30
2018-04-19T12:17:43.763Z,5.80
2018-04-19T12:18:50.678Z,5.40
2018-04-19T12:19:57.470Z,5.10
2018-04-19T12:21:04.347Z,5.40
2018-04-19T12:22:11.139Z,5.60
2018-04-19T12:23:17.927Z,4.90
2018-04-19T12:24:24.829Z,5.20
2018-04-19T12:25:31.592Z,5.70
2018-04-19T12:26:38.468Z,5.40
2018-04-19T12:27:45.334Z,5.50
2018-04-19T12:28:52.136Z,5.80
2018-04-19T12:29:58.915Z,6.00
2018-04-19T12:31:05.739Z,5.10
2018-04-19T12:32:12.539Z,5.30
2018-04-19T12:33:19.370Z,5.80
2018-04-19T12:34:26.190Z,7.50
2018-04-19T12:35:33.018Z,5.10
2018-04-19T12:36:39.919Z,5.10
2018-04-19T12:37:46.703Z,6.90
2018-04-19T12:38:53.516Z,5.40
2018-04-19T12:40:00.344Z,4.80
2018-04-19T12:41:07.178Z,4.80
2018-04-19T12:42:13.987Z,4.90
2018-04-19T12:43:20.797Z,5.20
2018-04-19T12:44:27.583Z,5.40
2018-04-19T12:45:34.382Z,5.80
2018-04-19T12:46:41.300Z,5.50
2018-04-19T12:47:48.095Z,5.40
2018-04-19T12:48:54.958Z,5.80
2018-04-19T12:50:02.710Z,5.50
2018-04-19T12:51:08.482Z,4.90
2018-04-19T12:52:15.261Z,4.60
2018-04-19T12:53:22.142Z,5.40
2018-04-19T12:54:28.960Z,6.40
2018-04-19T12:55:35.809Z,5.10
2018-04-19T12:56:42.701Z,5.80
2018-04-19T12:57:49.632Z,8.20
2018-04-19T12:58:56.456Z,4.60
2018-04-19T13:00:03.339Z,5.00
2018-04-19T13:01:10.148Z,4.60
2018-04-19T13:02:16.944Z,4.90
2018-04-19T13:03:23.763Z,5.10
2018-04-19T13:04:30.575Z,4.40
2018-04-19T13:05:37.353Z,5.10
2018-04-19T13:06:44.259Z,5.50
2018-04-19T13:07:51.087Z,4.70
2018-04-19T13:08:57.967Z,4.60
2018-04-19T13:10:04.721Z,4.80
2018-04-19T13:11:11.495Z,5.40
2018-04-19T13:12:18.291Z,5.50
2018-04-19T13:13:25.170Z,7.30
2018-04-19T13:14:31.997Z,6.10
2018-04-19T13:15:38.811Z,8.10
2018-04-19T13:16:45.727Z,7.50
2018-04-19T13:17:52.595Z,9.80
2018-04-19T13:18:59.407Z,10.30
2018-04-19T13:20:06.358Z,9.80
2018-04-19T13:21:13.227Z,9.90
2018-04-19T13:22:20.078Z,7.50
2018-04-19T13:23:26.951Z,5.30
2018-04-19T13:24:33.759Z,4.90
2018-04-19T13:25:40.629Z,5.20
2018-04-19T13:26:47.346Z,7.40
2018-04-19T13:27:54.161Z,5.70
2018-04-19T13:29:01.023Z,5.00
2018-04-19T13:30:07.822Z,5.00
2018-04-19T13:31:14.667Z,5.40
2018-04-19T13:32:21.508Z,4.80
2018-04-19T13:33:28.323Z,5.20
2018-04-19T13:34:35.104Z,5.00
2018-04-19T13:35:41.993Z,4.60
2018-04-19T13:36:48.834Z,5.00
2018-04-19T13:37:55.721Z,4.70
2018-04-19T13:39:02.718Z,5.30
2018-04-19T13:40:09.459Z,4.80
2018-04-19T13:41:16.256Z,5.70
2018-04-19T13:42:23.187Z,5.20
2018-04-19T13:43:30.132Z,5.20
2018-04-19T13:44:36.915Z,5.90
2018-04-19T13:45:43.723Z,6.10
2018-04-19T13:46:50.592Z,5.10
2018-04-19T13:47:57.431Z,5.00
2018-04-19T13:49:04.203Z,5.20
2018-04-19T13:50:11.286Z,4.90
2018-04-19T13:51:18.198Z,5.10
2018-04-19T13:52:25.092Z,5.40
2018-04-19T13:53:32.291Z,5.30
2018-04-19T13:54:39.172Z,5.40
2018-04-19T13:55:46.002Z,5.40
2018-04-19T13:56:52.810Z,5.30
2018-04-19T13:57:59.645Z,5.90
2018-04-19T13:59:06.429Z,5.70
2018-04-19T14:00:13.243Z,5.70
2018-04-19T14:01:20.036Z,5.20
2018-04-19T14:02:26.955Z,5.50
2018-04-19T14:03:34.022Z,5.30
2018-04-19T14:04:40.812Z,5.00
2018-04-19T14:05:47.644Z,6.30
2018-04-19T14:06:54.438Z,5.50
2018-04-19T14:08:01.285Z,5.80
2018-04-19T14:09:08.238Z,5.10
2018-04-19T14:10:15.043Z,5.40
2018-04-19T14:11:21.803Z,5.00
2018-04-19T14:12:28.716Z,5.50
2018-04-19T14:13:35.638Z,5.30
2018-04-19T14:14:42.766Z,5.00
2018-04-19T14:15:49.679Z,5.60
2018-04-19T14:16:57.321Z,5.60
2018-04-19T14:18:03.259Z,5.10
2018-04-19T14:19:10.190Z,5.20
2018-04-19T14:20:16.959Z,7.10
2018-04-19T14:21:23.769Z,5.10
2018-04-19T14:22:30.742Z,5.10
2018-04-19T14:23:37.528Z,5.30
2018-04-19T14:24:44.420Z,6.40
2018-04-19T14:25:51.333Z,5.60
2018-04-19T14:26:58.108Z,5.90
2018-04-19T14:28:05.009Z,5.10
2018-04-19T14:29:11.884Z,5.60
2018-04-19T14:30:18.727Z,5.60
2018-04-19T14:31:25.555Z,4.70
2018-04-19T14:32:32.407Z,5.40
2018-04-19T14:33:39.231Z,5.70
2018-04-19T14:34:45.995Z,5.30
2018-04-19T14:35:52.802Z,5.10
2018-04-19T14:36:59.707Z,5.30
2018-04-19T14:38:06.484Z,5.90
2018-04-19T14:39:13.283Z,5.20
2018-04-19T14:40:20.314Z,5.10
2018-04-19T14:41:27.653Z,5.30